createdAt,value
2023-04-19T00:02:18.587Z,9.95
2023-04-19T00:07:24.110Z,9.91
2023-04-19T00:12:27.828Z,9.90
2023-04-19T00:17:31.873Z,9.86
2023-04-19T00:22:37.007Z,9.86
2023-04-19T00:27:40.752Z,9.91
2023-04-19T00:32:44.519Z,10.01
2023-04-19T00:37:49.659Z,10.12
2023-04-19T00:42:53.381Z,10.26
2023-04-19T00:47:57.312Z,10.33
2023-04-19T00:53:02.723Z,10.38
2023-04-19T00:58:08.672Z,10.41
2023-04-19T01:03:13.605Z,10.42
2023-04-19T01:08:18.871Z,10.52
2023-04-19T01:13:22.739Z,10.53
2023-04-19T01:18:29.385Z,10.57
2023-04-19T01:23:34.537Z,10.58
2023-04-19T01:28:38.290Z,10.61
2023-04-19T01:33:42.036Z,10.64
2023-04-19T01:38:47.809Z,10.68
2023-04-19T01:43:51.524Z,10.66
2023-04-19T01:48:55.228Z,10.71
2023-04-19T01:54:01.634Z,10.62
2023-04-19T01:59:05.341Z,10.64
2023-04-19T02:04:09.089Z,10.60
2023-04-19T02:09:14.152Z,10.66
2023-04-19T02:14:18.898Z,10.72
2023-04-19T02:19:22.644Z,10.74
2023-04-19T02:24:27.934Z,10.74
2023-04-19T02:29:31.733Z,10.74
2023-04-19T02:34:35.454Z,10.72
2023-04-19T02:39:42.626Z,10.72
2023-04-19T02:44:46.338Z,10.83
2023-04-19T02:49:51.284Z,10.83
2023-04-19T02:54:56.741Z,10.86
2023-04-19T03:00:00.450Z,10.80
2023-04-19T03:05:06.539Z,10.83
2023-04-19T03:10:12.041Z,10.92
2023-04-19T03:15:16.046Z,10.87
2023-04-19T03:20:20.911Z,10.88
2023-04-19T03:25:26.559Z,10.87
2023-04-19T03:30:31.863Z,10.87
2023-04-19T03:35:36.193Z,10.81
2023-04-19T03:40:44.536Z,10.80
2023-04-19T03:45:50.247Z,10.80
2023-04-19T03:50:54.174Z,10.81
2023-04-19T03:55:59.972Z,10.78
2023-04-19T04:01:05.417Z,10.71
2023-04-19T04:06:09.316Z,10.70
2023-04-19T04:11:14.543Z,10.65
2023-04-19T04:16:19.560Z,10.65
2023-04-19T04:21:24.783Z,10.61
2023-04-19T04:26:33.878Z,10.63
2023-04-19T04:31:38.420Z,10.64
2023-04-19T04:36:42.280Z,10.59
2023-04-19T04:41:50.070Z,10.60
2023-04-19T04:46:53.818Z,10.56
2023-04-19T04:51:57.921Z,10.52
2023-04-19T04:57:05.042Z,10.54
2023-04-19T05:02:09.062Z,10.49
2023-04-19T05:07:12.862Z,10.54
2023-04-19T05:12:18.252Z,10.49
2023-04-19T05:17:22.160Z,10.38
2023-04-19T05:22:26.408Z,10.25
2023-04-19T05:27:32.318Z,10.14
2023-04-19T05:32:36.319Z,10.00
2023-04-19T05:37:41.503Z,9.91
2023-04-19T05:42:46.913Z,9.91
2023-04-19T05:47:51.528Z,9.92
2023-04-19T05:52:57.258Z,9.81
2023-04-19T05:58:02.842Z,9.89
2023-04-19T06:03:07.304Z,9.89
2023-04-19T06:08:11.479Z,9.92
2023-04-19T06:13:16.828Z,9.92
2023-04-19T06:18:20.617Z,9.99
2023-04-19T06:23:25.514Z,10.06
2023-04-19T06:28:30.597Z,10.10
2023-04-19T06:33:34.309Z,10.14
2023-04-19T06:38:38.930Z,10.09
2023-04-19T06:43:44.834Z,10.19
2023-04-19T06:48:48.782Z,10.33
2023-04-19T06:53:52.536Z,10.26
2023-04-19T06:58:57.610Z,10.40
2023-04-19T07:04:01.889Z,10.50
2023-04-19T07:09:07.236Z,10.51
2023-04-19T07:14:12.348Z,10.72
2023-04-19T07:19:19.171Z,10.90
2023-04-19T07:24:23.024Z,10.97
2023-04-19T07:29:28.165Z,11.00
2023-04-19T07:34:31.904Z,11.08
2023-04-19T07:39:35.765Z,11.21
2023-04-19T07:44:40.808Z,11.23
2023-04-19T07:49:44.688Z,11.36
2023-04-19T07:54:48.438Z,11.41
2023-04-19T07:59:57.893Z,11.59
2023-04-19T08:05:02.519Z,11.74
2023-04-19T08:10:07.721Z,11.90
2023-04-19T08:15:29.620Z,12.08
2023-04-19T08:20:36.940Z,12.15
2023-04-19T08:25:40.662Z,12.31
2023-04-19T08:30:46.004Z,12.39
2023-04-19T08:35:50.035Z,12.70
2023-04-19T08:40:56.101Z,12.95
2023-04-19T08:46:01.277Z,13.14
2023-04-19T08:51:06.386Z,13.21
2023-04-19T08:56:17.908Z,13.44
2023-04-19T09:01:36.133Z,13.83
2023-04-19T09:06:41.765Z,14.00
2023-04-19T09:11:45.945Z,14.28
2023-04-19T09:16:52.192Z,14.56
2023-04-19T09:21:56.444Z,14.86
2023-04-19T09:27:00.383Z,15.19
2023-04-19T09:32:06.146Z,15.46
2023-04-19T09:37:21.452Z,15.74
2023-04-19T09:48:04.268Z,16.56
2023-04-19T09:53:08.372Z,17.00
2023-04-19T09:58:12.157Z,17.52
2023-04-19T10:03:18.360Z,17.64
2023-04-19T10:08:22.238Z,18.21
2023-04-19T10:13:27.100Z,18.51
2023-04-19T10:18:33.388Z,19.01
2023-04-19T10:23:38.340Z,19.08
2023-04-19T10:28:42.842Z,19.37
2023-04-19T10:33:49.350Z,19.65
2023-04-19T10:38:53.612Z,19.89
2023-04-19T10:44:11.308Z,19.85
2023-04-19T10:49:16.728Z,20.00
2023-04-19T10:54:31.477Z,20.25
2023-04-19T10:59:36.662Z,20.90
2023-04-19T11:05:14.444Z,20.95
2023-04-19T11:10:29.928Z,21.10
2023-04-19T11:15:33.620Z,21.33
2023-04-19T11:20:38.668Z,21.77
2023-04-19T11:25:42.428Z,22.08
2023-04-19T11:30:46.531Z,22.36
2023-04-19T11:35:51.786Z,22.53
2023-04-19T11:41:00.451Z,22.41
2023-04-19T11:46:07.739Z,22.61
2023-04-19T11:51:16.167Z,22.90
2023-04-19T11:56:19.904Z,22.92
2023-04-19T12:01:25.195Z,23.21
2023-04-19T12:06:32.063Z,23.71
2023-04-19T12:11:45.558Z,23.96
2023-04-19T12:17:07.578Z,24.82
2023-04-19T12:22:19.629Z,24.45
2023-04-19T12:27:23.362Z,24.91
2023-04-19T12:32:27.277Z,25.38
2023-04-19T12:37:32.592Z,25.66
2023-04-19T12:42:36.327Z,25.98
2023-04-19T12:47:40.350Z,26.21
2023-04-19T12:52:46.538Z,26.07
2023-04-19T12:57:50.239Z,26.18
2023-04-19T13:02:54.455Z,26.88
2023-04-19T13:08:00.232Z,27.19
2023-04-19T13:13:03.977Z,26.64
2023-04-19T13:18:07.872Z,26.86
2023-04-19T13:23:12.956Z,27.26
2023-04-19T13:28:16.717Z,27.65
2023-04-19T13:33:20.533Z,28.11
2023-04-19T13:38:25.820Z,27.83
2023-04-19T13:43:29.502Z,28.35
2023-04-19T13:48:33.304Z,27.97
2023-04-19T13:53:39.731Z,28.00
2023-04-19T13:58:43.421Z,28.11
2023-04-19T14:03:47.366Z,27.81
2023-04-19T14:08:52.692Z,28.16
2023-04-19T14:13:57.120Z,28.54
2023-04-19T14:19:01.081Z,28.77
2023-04-19T14:24:07.784Z,28.63
2023-04-19T14:29:11.674Z,28.79
2023-04-19T14:34:15.397Z,28.51
2023-04-19T14:39:20.529Z,28.29
2023-04-19T14:44:24.252Z,28.80
2023-04-19T14:49:27.993Z,28.73
2023-04-19T14:54:33.143Z,28.62
2023-04-19T14:59:36.971Z,28.68
2023-04-19T15:04:41.537Z,27.75
2023-04-19T15:09:47.003Z,28.12
2023-04-19T15:14:50.741Z,28.50
2023-04-19T15:19:54.504Z,28.29
2023-04-19T15:25:01.606Z,28.54
2023-04-19T15:30:05.326Z,28.71
2023-04-19T15:35:09.765Z,27.92
2023-04-19T15:40:17.045Z,28.18
2023-04-19T15:45:20.634Z,27.91
2023-04-19T15:50:24.440Z,27.20
2023-04-19T15:55:29.725Z,27.78
2023-04-19T16:00:33.743Z,27.27
2023-04-19T16:05:37.527Z,26.81
2023-04-19T16:10:44.801Z,27.00
2023-04-19T16:15:48.521Z,26.89
2023-04-19T16:20:54.155Z,26.53
2023-04-19T16:25:59.410Z,26.49
2023-04-19T16:31:03.331Z,26.16
2023-04-19T16:36:07.492Z,25.87
2023-04-19T16:41:12.914Z,25.24
2023-04-19T16:46:16.878Z,24.99
2023-04-19T16:51:20.757Z,24.90
2023-04-19T16:56:25.945Z,24.28
2023-04-19T17:01:29.926Z,24.01
2023-04-19T17:06:34.211Z,22.93
2023-04-19T17:11:39.439Z,22.19
2023-04-19T17:16:43.511Z,21.18
2023-04-19T17:21:47.942Z,20.50
2023-04-19T17:26:53.226Z,20.21
2023-04-19T17:31:57.133Z,19.69
2023-04-19T17:37:01.918Z,18.98
2023-04-19T17:42:07.212Z,19.03
2023-04-19T17:47:11.021Z,18.90
2023-04-19T17:52:15.030Z,18.78
2023-04-19T17:57:20.694Z,18.30
2023-04-19T18:02:24.931Z,18.35
2023-04-19T18:07:28.852Z,18.07
2023-04-19T18:12:34.129Z,17.99
2023-04-19T18:17:38.024Z,17.78
2023-04-19T18:22:41.943Z,17.61
2023-04-19T18:27:47.104Z,17.42
2023-04-19T18:32:50.876Z,17.32
2023-04-19T18:37:54.617Z,17.22
2023-04-19T18:42:59.740Z,17.02
2023-04-19T18:48:03.555Z,16.90
2023-04-19T18:53:07.221Z,16.75
2023-04-19T18:58:13.645Z,16.57
2023-04-19T19:03:43.825Z,16.34
2023-04-19T19:08:41.079Z,16.13
2023-04-19T19:13:46.505Z,16.16
2023-04-19T19:18:51.352Z,16.00
2023-04-19T19:23:57.731Z,15.95
2023-04-19T19:29:02.912Z,15.80
2023-04-19T19:34:23.372Z,15.64
2023-04-19T19:39:29.578Z,15.36
2023-04-19T19:44:34.702Z,15.02
2023-04-19T19:54:45.239Z,14.73
2023-04-19T19:59:56.016Z,14.55
2023-04-19T20:05:00.554Z,14.47
2023-04-19T20:10:04.601Z,14.31
2023-04-19T20:15:11.901Z,14.17
2023-04-19T20:20:15.733Z,14.05
2023-04-19T20:25:19.494Z,14.00
2023-04-19T20:30:24.784Z,13.74
2023-04-19T20:35:28.828Z,13.75
2023-04-19T20:40:33.096Z,13.56
2023-04-19T20:45:39.256Z,13.52
2023-04-19T20:50:43.799Z,13.39
2023-04-19T20:55:47.637Z,13.10
2023-04-19T21:00:52.752Z,13.12
2023-04-19T21:05:56.582Z,13.02
2023-04-19T21:11:00.618Z,12.94
2023-04-19T21:16:06.382Z,12.77
2023-04-19T21:21:10.168Z,12.65
2023-04-19T21:26:13.962Z,12.37
2023-04-19T21:31:19.047Z,12.43
2023-04-19T21:36:22.851Z,12.30
2023-04-19T21:41:26.630Z,12.23
2023-04-19T21:46:32.064Z,12.17
2023-04-19T21:51:35.984Z,12.01
2023-04-19T21:56:39.991Z,11.94
2023-04-19T22:01:45.954Z,11.81
2023-04-19T22:06:49.704Z,11.57
2023-04-19T22:11:53.381Z,11.49
2023-04-19T22:16:59.054Z,11.39
2023-04-19T22:22:02.905Z,11.25
2023-04-19T22:27:06.900Z,11.24
2023-04-19T22:32:12.066Z,11.16
2023-04-19T22:37:15.856Z,11.08
2023-04-19T22:42:19.580Z,11.07
2023-04-19T22:47:24.657Z,10.95
2023-04-19T22:52:28.670Z,10.90
2023-04-19T22:57:32.377Z,10.88
2023-04-19T23:02:38.082Z,10.75
2023-04-19T23:07:43.026Z,10.63
2023-04-19T23:12:46.954Z,10.66
2023-04-19T23:17:52.832Z,10.54
2023-04-19T23:22:56.641Z,10.39
2023-04-19T23:28:00.351Z,10.29
2023-04-19T23:33:05.864Z,10.25
2023-04-19T23:38:09.730Z,10.07
2023-04-19T23:43:13.473Z,10.04
2023-04-19T23:48:18.542Z,9.97
2023-04-19T23:53:22.236Z,9.89
2023-04-19T23:58:26.000Z,9.79
